createdAt,value
2022-12-16T00:01:12.609Z,62.40
2022-12-16T00:03:40.759Z,63.10
2022-12-16T00:06:09.110Z,52.40
2022-12-16T00:08:38.769Z,66.28
2022-12-16T00:11:07.637Z,63.17
2022-12-16T00:13:37.531Z,69.10
2022-12-16T00:16:10.827Z,78.50
2022-12-16T00:18:38.569Z,61.72
2022-12-16T00:21:06.016Z,58.72
2022-12-16T00:23:34.325Z,68.40
2022-12-16T00:26:02.316Z,54.63
2022-12-16T00:28:29.162Z,67.40
2022-12-16T00:30:56.926Z,72.22
2022-12-16T00:33:25.832Z,79.78
2022-12-16T00:35:53.900Z,65.82
2022-12-16T00:38:26.962Z,66.70
2022-12-16T00:40:54.285Z,62.08
2022-12-16T00:43:22.199Z,71.43
2022-12-16T00:45:49.870Z,68.88
2022-12-16T00:48:20.329Z,84.90
2022-12-16T00:50:50.788Z,90.43
2022-12-16T00:53:20.310Z,70.65
2022-12-16T00:55:51.356Z,77.90
2022-12-16T00:58:21.568Z,71.63
2022-12-16T01:00:51.564Z,68.22
2022-12-16T01:03:21.800Z,73.18
2022-12-16T01:05:49.856Z,87.75
2022-12-16T01:08:17.333Z,76.68
2022-12-16T01:10:55.347Z,62.03
2022-12-16T01:13:24.387Z,76.60
2022-12-16T01:15:51.987Z,79.38
2022-12-16T01:18:19.360Z,80.78
2022-12-16T01:20:46.475Z,66.72
2022-12-16T01:23:13.249Z,72.05
2022-12-16T01:25:40.225Z,69.97
2022-12-16T01:28:07.101Z,75.60
2022-12-16T01:30:34.287Z,69.18
2022-12-16T01:33:01.059Z,74.65
2022-12-16T01:35:52.567Z,65.93
2022-12-16T01:38:15.616Z,69.45
2022-12-16T01:40:42.730Z,74.18
2022-12-16T01:43:14.126Z,70.60
2022-12-16T01:45:41.253Z,63.58
2022-12-16T01:48:25.466Z,61.65
2022-12-16T01:50:59.364Z,69.95
2022-12-16T01:53:26.452Z,68.93
2022-12-16T01:55:55.611Z,62.22
2022-12-16T01:58:29.753Z,59.95
2022-12-16T02:00:56.675Z,63.75
2022-12-16T02:03:24.420Z,59.75
2022-12-16T02:05:53.380Z,47.78
2022-12-16T02:08:20.688Z,60.15
2022-12-16T02:11:08.154Z,50.00
2022-12-16T02:14:03.061Z,62.55
2022-12-16T02:17:00.362Z,65.78
2022-12-16T02:19:58.109Z,62.88
2022-12-16T02:22:28.613Z,55.42
2022-12-16T02:25:04.356Z,50.08
2022-12-16T02:28:03.138Z,55.60
2022-12-16T02:30:48.790Z,57.83
2022-12-16T02:33:59.843Z,59.55
2022-12-16T02:36:57.857Z,57.25
2022-12-16T02:39:37.840Z,61.72
2022-12-16T02:42:14.039Z,58.90
2022-12-16T02:44:59.202Z,47.45
2022-12-16T02:47:26.090Z,57.00
2022-12-16T02:49:54.285Z,62.97
2022-12-16T02:52:28.087Z,55.63
2022-12-16T02:55:07.761Z,51.78
2022-12-16T02:57:43.690Z,61.38
2022-12-16T03:00:14.032Z,59.60
2022-12-16T03:02:55.530Z,62.00
2022-12-16T03:05:42.915Z,59.90
2022-12-16T03:08:14.635Z,52.10
2022-12-16T03:11:03.052Z,55.75
2022-12-16T03:13:35.865Z,61.63
2022-12-16T03:16:06.790Z,52.00
2022-12-16T03:18:35.568Z,57.42
2022-12-16T03:21:07.165Z,58.22
2022-12-16T03:23:42.049Z,50.92
2022-12-16T03:26:21.751Z,57.95
2022-12-16T03:28:50.837Z,56.30
2022-12-16T03:31:26.493Z,55.03
2022-12-16T03:34:00.181Z,60.80
2022-12-16T03:36:30.875Z,55.20
2022-12-16T03:38:58.474Z,58.70
2022-12-16T03:41:26.396Z,56.05
2022-12-16T03:43:53.587Z,68.03
2022-12-16T03:46:20.628Z,66.47
2022-12-16T03:48:50.726Z,51.47
2022-12-16T03:51:18.511Z,66.65
2022-12-16T03:53:45.934Z,63.88
2022-12-16T03:56:13.525Z,62.38
2022-12-16T03:58:40.494Z,68.95
2022-12-16T04:01:09.637Z,66.97
2022-12-16T04:03:38.006Z,62.05
2022-12-16T04:06:05.792Z,63.60
2022-12-16T04:08:32.672Z,69.25
2022-12-16T04:11:18.243Z,62.80
2022-12-16T04:14:03.459Z,66.53
2022-12-16T04:16:49.376Z,70.13
2022-12-16T04:19:43.118Z,70.88
2022-12-16T04:22:36.423Z,66.97
2022-12-16T04:25:18.785Z,71.05
2022-12-16T04:27:47.968Z,57.88
2022-12-16T04:30:20.028Z,54.80
2022-12-16T04:33:12.422Z,63.20
2022-12-16T04:35:58.333Z,64.43
2022-12-16T04:38:44.096Z,55.20
2022-12-16T04:41:29.676Z,52.08
2022-12-16T04:44:15.312Z,63.00
2022-12-16T04:47:00.788Z,51.88
2022-12-16T04:49:46.453Z,64.60
2022-12-16T04:52:32.524Z,46.72
2022-12-16T04:55:18.008Z,129.18
2022-12-16T04:58:07.353Z,110.18
2022-12-16T05:00:52.829Z,75.60
2022-12-16T05:03:38.458Z,83.85
2022-12-16T05:06:24.402Z,98.20
2022-12-16T05:09:10.022Z,83.25
2022-12-16T05:11:55.568Z,102.95
2022-12-16T05:14:41.089Z,70.47
2022-12-16T05:17:26.530Z,71.38
2022-12-16T05:20:12.201Z,55.72
2022-12-16T05:22:58.059Z,66.80
2022-12-16T05:25:43.804Z,73.00
2022-12-16T05:28:30.117Z,70.63
2022-12-16T05:31:15.647Z,65.90
2022-12-16T05:34:01.182Z,68.03
2022-12-16T05:36:46.804Z,65.93
2022-12-16T05:39:32.025Z,65.88
2022-12-16T05:42:17.637Z,64.28
2022-12-16T05:45:03.237Z,65.90
2022-12-16T05:47:49.169Z,63.50
2022-12-16T05:50:34.626Z,63.17
2022-12-16T05:53:23.401Z,64.82
2022-12-16T05:56:09.295Z,74.57
2022-12-16T05:58:54.772Z,111.57
2022-12-16T06:01:40.159Z,136.45
2022-12-16T06:04:25.470Z,117.88
2022-12-16T06:07:10.853Z,138.98
2022-12-16T06:09:57.089Z,93.20
2022-12-16T06:12:42.742Z,91.90
2022-12-16T06:15:28.802Z,91.30
2022-12-16T06:18:14.160Z,99.72
2022-12-16T06:21:00.401Z,97.93
2022-12-16T06:23:45.697Z,87.50
2022-12-16T06:26:31.133Z,116.82
2022-12-16T06:29:16.496Z,91.85
2022-12-16T06:32:02.089Z,66.85
2022-12-16T06:34:52.519Z,67.38
2022-12-16T06:37:38.009Z,86.45
2022-12-16T06:40:24.129Z,94.55
2022-12-16T06:43:09.612Z,73.88
2022-12-16T06:45:55.566Z,81.90
2022-12-16T06:48:41.383Z,81.20
2022-12-16T06:51:27.108Z,75.38
2022-12-16T06:54:12.301Z,120.32
2022-12-16T06:56:58.296Z,95.57
2022-12-16T06:59:43.632Z,100.43
2022-12-16T07:02:30.150Z,60.80
2022-12-16T07:05:15.518Z,98.97
2022-12-16T07:08:08.900Z,102.82
2022-12-16T07:10:55.449Z,97.50
2022-12-16T07:13:42.128Z,96.57
2022-12-16T07:16:29.275Z,81.78
2022-12-16T07:19:14.646Z,82.63
2022-12-16T07:21:59.943Z,80.13
2022-12-16T07:24:45.113Z,112.05
2022-12-16T07:27:50.481Z,113.57
2022-12-16T07:30:35.992Z,116.10
2022-12-16T07:33:21.384Z,125.10
2022-12-16T07:36:07.182Z,125.43
2022-12-16T07:38:52.568Z,130.45
2022-12-16T07:41:38.189Z,127.88
2022-12-16T07:44:23.635Z,94.53
2022-12-16T07:47:09.652Z,119.93
2022-12-16T07:49:55.428Z,110.00
2022-12-16T07:52:41.206Z,95.97
2022-12-16T07:55:27.543Z,93.18
2022-12-16T07:58:13.019Z,95.63
2022-12-16T08:00:58.617Z,87.57
2022-12-16T08:03:44.270Z,111.68
2022-12-16T08:06:29.818Z,117.45
2022-12-16T08:09:15.420Z,116.43
2022-12-16T08:12:01.258Z,99.53
2022-12-16T08:14:46.956Z,75.90
2022-12-16T08:17:32.238Z,82.07
2022-12-16T08:20:17.846Z,70.47
2022-12-16T08:23:03.228Z,74.28
2022-12-16T08:25:48.496Z,87.55
2022-12-16T08:28:34.141Z,79.05
2022-12-16T08:31:19.696Z,113.35
2022-12-16T08:34:05.443Z,125.07
2022-12-16T08:36:50.933Z,86.88
2022-12-16T08:39:36.912Z,85.88
2022-12-16T08:42:22.354Z,102.07
2022-12-16T08:45:07.885Z,86.20
2022-12-16T08:47:54.493Z,80.45
2022-12-16T08:50:41.949Z,73.55
2022-12-16T08:53:28.025Z,88.18
2022-12-16T08:56:13.963Z,102.07
2022-12-16T08:58:59.847Z,100.22
2022-12-16T09:01:45.414Z,101.25
2022-12-16T09:04:31.099Z,116.60
2022-12-16T09:07:16.763Z,139.75
2022-12-16T09:10:02.401Z,152.90
2022-12-16T09:12:47.771Z,132.57
2022-12-16T09:15:32.977Z,116.32
2022-12-16T09:18:18.470Z,112.43
2022-12-16T09:21:03.935Z,94.63
2022-12-16T09:23:49.505Z,112.03
2022-12-16T09:26:35.209Z,144.02
2022-12-16T09:29:20.423Z,112.13
2022-12-16T09:32:06.118Z,150.18
2022-12-16T09:34:51.997Z,139.77
2022-12-16T09:37:38.069Z,148.85
2022-12-16T09:40:24.011Z,128.88
2022-12-16T09:43:46.414Z,117.18
2022-12-16T09:46:41.540Z,121.28
2022-12-16T09:49:42.380Z,121.85
2022-12-16T09:52:36.070Z,114.75
2022-12-16T09:55:23.560Z,96.40
2022-12-16T09:58:10.692Z,110.45
2022-12-16T10:00:56.202Z,106.88
2022-12-16T10:03:48.256Z,108.80
2022-12-16T10:06:54.612Z,100.30
2022-12-16T10:10:07.368Z,98.30
2022-12-16T10:13:04.608Z,101.80
2022-12-16T10:16:10.929Z,101.40
2022-12-16T10:19:01.990Z,93.05
2022-12-16T10:21:54.803Z,94.32
2022-12-16T10:24:57.775Z,96.07
2022-12-16T10:27:53.810Z,89.32
2022-12-16T10:30:39.815Z,92.30
2022-12-16T10:33:30.566Z,89.10
2022-12-16T10:36:16.192Z,89.50
2022-12-16T10:39:12.236Z,83.68
2022-12-16T10:42:01.799Z,102.80
2022-12-16T10:45:07.841Z,108.95
2022-12-16T10:47:54.382Z,102.20
2022-12-16T10:50:40.681Z,100.47
2022-12-16T10:53:37.124Z,81.32
2022-12-16T10:56:36.354Z,74.35
2022-12-16T10:59:26.189Z,43.17
2022-12-16T11:02:23.836Z,37.33
2022-12-16T11:05:09.764Z,32.03
2022-12-16T11:08:03.961Z,23.23
2022-12-16T11:11:02.750Z,25.58
2022-12-16T11:13:53.436Z,11.88
2022-12-16T11:16:44.990Z,7.95
2022-12-16T11:19:47.617Z,6.95
2022-12-16T11:22:41.022Z,7.85
2022-12-16T11:25:35.542Z,5.35
2022-12-16T11:28:40.078Z,3.92
2022-12-16T11:31:31.419Z,22.95
2022-12-16T11:34:18.504Z,62.35
2022-12-16T11:37:05.553Z,19.30
2022-12-16T11:39:53.380Z,17.45
2022-12-16T11:42:42.290Z,8.98
2022-12-16T11:45:38.648Z,15.55
2022-12-16T11:48:46.942Z,6.18
2022-12-16T11:51:34.493Z,11.88
2022-12-16T11:54:47.112Z,4.15
2022-12-16T11:57:53.729Z,3.83
2022-12-16T12:00:40.171Z,2.30
2022-12-16T12:03:30.160Z,5.72
2022-12-16T12:06:24.725Z,5.97
2022-12-16T12:09:27.999Z,4.70
2022-12-16T12:12:33.596Z,5.43
2022-12-16T12:16:03.150Z,5.50
2022-12-16T12:19:44.321Z,3.63
2022-12-16T12:22:45.695Z,2.90
2022-12-16T12:25:31.545Z,5.05
2022-12-16T12:28:45.970Z,4.60
2022-12-16T12:31:41.718Z,6.88
2022-12-16T12:34:55.407Z,5.85
2022-12-16T12:38:01.851Z,6.57
2022-12-16T12:41:11.476Z,3.58
2022-12-16T12:44:17.557Z,4.47
2022-12-16T12:47:12.377Z,7.25
2022-12-16T12:50:35.395Z,5.85
2022-12-16T12:53:53.290Z,5.15
2022-12-16T12:56:46.479Z,9.95
2022-12-16T13:00:06.217Z,5.35
2022-12-16T13:03:00.914Z,2.85
2022-12-16T13:05:49.684Z,8.10
2022-12-16T13:09:09.511Z,3.80
2022-12-16T13:11:56.093Z,22.58
2022-12-16T13:14:51.476Z,24.95
2022-12-16T13:17:38.476Z,34.85
2022-12-16T13:20:45.904Z,28.88
2022-12-16T13:23:46.112Z,36.90
2022-12-16T13:26:37.271Z,29.95
2022-12-16T13:29:44.408Z,31.35
2022-12-16T13:32:41.248Z,34.38
2022-12-16T13:35:29.491Z,36.00
2022-12-16T13:38:20.950Z,31.00
2022-12-16T13:41:07.856Z,27.55
2022-12-16T13:44:05.604Z,30.70
2022-12-16T13:47:06.829Z,29.10
2022-12-16T13:49:54.829Z,42.17
2022-12-16T13:52:58.937Z,42.63
2022-12-16T13:56:07.176Z,35.22
2022-12-16T13:59:01.917Z,33.75
2022-12-16T14:01:54.040Z,39.75
2022-12-16T14:04:45.168Z,34.53
2022-12-16T14:07:32.386Z,42.40
2022-12-16T14:10:18.332Z,53.47
2022-12-16T14:13:28.255Z,27.30
2022-12-16T14:16:26.445Z,47.17
2022-12-16T14:19:11.984Z,49.20
2022-12-16T14:22:32.794Z,47.13
2022-12-16T14:25:28.838Z,38.97
2022-12-16T14:28:14.233Z,70.18
2022-12-16T14:31:00.819Z,53.42
2022-12-16T14:33:48.146Z,47.00
2022-12-16T14:36:45.319Z,45.05
2022-12-16T14:39:42.034Z,48.00
2022-12-16T14:42:48.306Z,57.92
2022-12-16T14:45:53.299Z,28.42
2022-12-16T14:48:50.042Z,37.25
2022-12-16T14:51:39.529Z,76.47
2022-12-16T14:54:36.936Z,66.50
2022-12-16T14:57:23.732Z,43.47
2022-12-16T15:00:29.386Z,35.15
2022-12-16T15:03:37.390Z,16.40
2022-12-16T15:06:28.756Z,44.80
2022-12-16T15:09:20.745Z,52.78
2022-12-16T15:12:08.318Z,44.03
2022-12-16T15:14:57.818Z,40.03
2022-12-16T15:17:51.695Z,44.10
2022-12-16T15:20:46.116Z,42.03
2022-12-16T15:23:53.040Z,44.28
2022-12-16T15:26:40.698Z,50.28
2022-12-16T15:29:55.504Z,41.90
2022-12-16T15:32:43.585Z,47.65
2022-12-16T15:35:54.486Z,52.38
2022-12-16T15:38:42.857Z,50.58
2022-12-16T15:41:49.306Z,61.05
2022-12-16T15:44:45.568Z,53.42
2022-12-16T15:47:52.149Z,47.78
2022-12-16T15:50:43.311Z,42.65
2022-12-16T15:53:49.832Z,42.03
2022-12-16T15:56:45.332Z,55.50
2022-12-16T15:59:49.477Z,47.05
2022-12-16T16:02:38.141Z,42.08
2022-12-16T16:05:32.748Z,44.47
2022-12-16T16:08:18.144Z,49.45
2022-12-16T16:11:04.575Z,61.97
2022-12-16T16:13:50.058Z,49.42
2022-12-16T16:16:36.065Z,53.13
2022-12-16T16:19:21.998Z,57.45
2022-12-16T16:22:07.454Z,59.33
2022-12-16T16:24:53.102Z,49.05
2022-12-16T16:27:38.672Z,50.30
2022-12-16T16:30:25.024Z,46.35
2022-12-16T16:33:10.585Z,53.95
2022-12-16T16:35:56.408Z,67.28
2022-12-16T16:38:42.280Z,80.55
2022-12-16T16:41:33.724Z,55.85
2022-12-16T16:44:19.915Z,53.20
2022-12-16T16:47:05.817Z,60.22
2022-12-16T16:49:59.652Z,54.17
2022-12-16T16:52:46.387Z,49.60
2022-12-16T16:55:40.900Z,55.58
2022-12-16T16:58:39.089Z,51.22
2022-12-16T17:01:24.740Z,48.53
2022-12-16T17:04:10.468Z,60.55
2022-12-16T17:06:56.072Z,62.42
2022-12-16T17:09:41.394Z,65.80
2022-12-16T17:12:44.126Z,63.45
2022-12-16T17:15:39.373Z,64.10
2022-12-16T17:18:25.990Z,71.10
2022-12-16T17:21:12.480Z,74.72
2022-12-16T17:23:58.358Z,71.45
2022-12-16T17:26:43.635Z,60.33
2022-12-16T17:29:40.841Z,71.32
2022-12-16T17:32:26.865Z,53.72
2022-12-16T17:35:12.694Z,55.22
2022-12-16T17:37:58.238Z,55.47
2022-12-16T17:40:44.031Z,58.03
2022-12-16T17:43:29.763Z,51.75
2022-12-16T17:46:15.964Z,52.05
2022-12-16T17:49:01.520Z,50.03
2022-12-16T17:51:46.850Z,61.03
2022-12-16T17:54:31.993Z,53.78
2022-12-16T17:57:17.672Z,47.50
2022-12-16T18:00:02.735Z,66.00
2022-12-16T18:02:48.735Z,62.63
2022-12-16T18:05:41.162Z,70.20
2022-12-16T18:08:29.939Z,60.05
2022-12-16T18:11:17.159Z,75.60
2022-12-16T18:14:03.446Z,55.47
2022-12-16T18:16:49.585Z,50.20
2022-12-16T18:19:35.673Z,50.30
2022-12-16T18:22:21.355Z,49.55
2022-12-16T18:25:06.678Z,45.50
2022-12-16T18:27:52.183Z,43.33
2022-12-16T18:30:38.042Z,39.58
2022-12-16T18:33:23.440Z,37.97
2022-12-16T18:36:09.039Z,44.88
2022-12-16T18:38:54.656Z,76.90
2022-12-16T18:41:41.319Z,60.95
2022-12-16T18:44:30.233Z,79.05
2022-12-16T18:47:16.018Z,78.82
2022-12-16T18:50:01.427Z,67.47
2022-12-16T18:52:47.052Z,60.25
2022-12-16T18:55:32.952Z,50.60
2022-12-16T18:58:49.216Z,50.17
2022-12-16T19:01:27.077Z,41.47
2022-12-16T19:04:13.907Z,65.15
2022-12-16T19:06:59.252Z,48.17
2022-12-16T19:09:44.575Z,62.05
2022-12-16T19:12:30.181Z,64.95
2022-12-16T19:15:16.016Z,61.67
2022-12-16T19:18:01.756Z,92.43
2022-12-16T19:20:47.024Z,64.10
2022-12-16T19:23:34.725Z,101.70
2022-12-16T19:26:20.538Z,99.72
2022-12-16T19:29:06.195Z,107.82
2022-12-16T19:31:51.860Z,140.38
2022-12-16T19:34:37.631Z,150.52
2022-12-16T19:37:23.278Z,116.20
2022-12-16T19:40:08.895Z,89.30
2022-12-16T19:42:55.846Z,64.43
2022-12-16T19:45:41.935Z,51.90
2022-12-16T19:48:27.414Z,46.00
2022-12-16T19:51:17.582Z,46.30
2022-12-16T19:54:04.057Z,51.15
2022-12-16T19:56:50.738Z,47.47
2022-12-16T19:59:38.972Z,43.50
2022-12-16T20:02:25.756Z,49.90
2022-12-16T20:05:11.380Z,61.08
2022-12-16T20:07:56.793Z,61.50
2022-12-16T20:10:42.600Z,56.78
2022-12-16T20:13:30.247Z,58.60
2022-12-16T20:16:27.443Z,52.88
2022-12-16T20:19:13.488Z,60.25
2022-12-16T20:22:04.551Z,58.45
2022-12-16T20:24:52.585Z,55.97
2022-12-16T20:27:42.145Z,61.88
2022-12-16T20:30:29.031Z,64.57
2022-12-16T20:33:14.832Z,65.28
2022-12-16T20:36:00.397Z,67.63
2022-12-16T20:38:45.763Z,65.40
2022-12-16T20:41:31.428Z,69.25
2022-12-16T20:44:17.409Z,67.45
2022-12-16T20:47:02.898Z,66.00
2022-12-16T20:49:48.446Z,65.65
2022-12-16T20:52:34.143Z,65.72
2022-12-16T20:55:19.844Z,78.55
2022-12-16T20:58:15.903Z,87.68
2022-12-16T21:01:01.598Z,98.05
2022-12-16T21:03:47.322Z,95.80
2022-12-16T21:06:32.870Z,133.85
2022-12-16T21:09:18.426Z,115.05
2022-12-16T21:12:03.931Z,121.75
2022-12-16T21:14:49.717Z,107.55
2022-12-16T21:17:35.234Z,89.75
2022-12-16T21:20:21.432Z,81.85
2022-12-16T21:23:20.755Z,109.38
2022-12-16T21:26:06.911Z,120.38
2022-12-16T21:28:52.582Z,114.03
2022-12-16T21:31:41.599Z,111.82
2022-12-16T21:34:27.052Z,98.22
2022-12-16T21:37:12.462Z,107.72
2022-12-16T21:39:57.732Z,86.20
2022-12-16T21:42:44.275Z,65.88
2022-12-16T21:45:30.898Z,79.47
2022-12-16T21:48:16.292Z,84.85
2022-12-16T21:51:01.603Z,76.20
2022-12-16T21:53:47.624Z,82.70
2022-12-16T21:56:33.397Z,122.18
2022-12-16T21:59:18.628Z,99.72
2022-12-16T22:02:05.219Z,93.85
2022-12-16T22:04:50.624Z,81.32
2022-12-16T22:07:35.945Z,50.17
2022-12-16T22:10:23.259Z,80.55
2022-12-16T22:13:08.806Z,72.72
2022-12-16T22:15:59.401Z,53.90
2022-12-16T22:18:48.014Z,48.42
2022-12-16T22:21:33.699Z,58.33
2022-12-16T22:24:19.661Z,66.75
2022-12-16T22:27:05.254Z,87.28
2022-12-16T22:29:50.643Z,108.80
2022-12-16T22:32:36.060Z,81.07
2022-12-16T22:35:21.552Z,93.55
2022-12-16T22:38:06.988Z,86.78
2022-12-16T22:40:52.749Z,89.05
2022-12-16T22:43:48.672Z,87.85
2022-12-16T22:46:34.631Z,88.90
2022-12-16T22:49:20.271Z,88.57
2022-12-16T22:52:05.977Z,79.15
2022-12-16T22:54:51.897Z,80.28
2022-12-16T22:57:38.748Z,70.18
2022-12-16T23:00:24.847Z,66.28
2022-12-16T23:03:10.550Z,59.42
2022-12-16T23:05:55.719Z,59.92
2022-12-16T23:08:41.803Z,61.25
2022-12-16T23:11:37.446Z,59.25
2022-12-16T23:14:22.854Z,56.97
2022-12-16T23:17:08.459Z,56.50
2022-12-16T23:19:56.332Z,56.97
2022-12-16T23:22:42.234Z,50.65
2022-12-16T23:25:27.467Z,47.72
2022-12-16T23:28:16.197Z,43.10
2022-12-16T23:31:01.789Z,46.63
2022-12-16T23:33:47.501Z,43.42
2022-12-16T23:36:33.477Z,40.30
2022-12-16T23:39:18.934Z,40.92
2022-12-16T23:42:05.258Z,34.13
2022-12-16T23:44:55.185Z,35.05
2022-12-16T23:47:42.251Z,36.13
2022-12-16T23:50:28.049Z,34.15
2022-12-16T23:53:24.554Z,30.25
2022-12-16T23:56:16.855Z,29.02
2022-12-16T23:59:03.479Z,27.88
